Time;durP1;ratioP1;P1;durP2;ratioP2;P2;SDS_P1;SDS_P2;PMS_P1;PMS_P2;Temp;Humidity;BMP_temperature;BMP_pressure;BME280_temperature;BME280_humidity;BME280_pressure;Samples;Min_cycle;Max_cycle;Signal;HPM_P1;HPM_P2
2024/01/07 00:01:10;;;;;;;29.77;26.67;;;1.70;99.90;;;;;;5045599;28;20061;-70
2024/01/07 00:03:36;;;;;;;29.38;26.05;;;1.80;99.90;;;;;;5027091;28;20180;-71
2024/01/07 00:06:02;;;;;;;33.90;27.75;;;1.80;99.90;;;;;;5028540;28;20032;-71
2024/01/07 00:08:28;;;;;;;29.20;23.38;;;1.70;99.90;;;;;;4995826;28;20025;-70
2024/01/07 00:10:54;;;;;;;35.33;26.95;;;1.80;99.90;;;;;;5028298;28;20329;-70
2024/01/07 00:13:19;;;;;;;37.33;29.15;;;1.80;99.90;;;;;;5044970;28;20125;-70
2024/01/07 00:15:45;;;;;;;28.45;25.02;;;1.70;99.90;;;;;;5011664;28;20029;-70
2024/01/07 00:18:11;;;;;;;30.30;25.20;;;1.70;99.90;;;;;;5011680;28;20300;-70
2024/01/07 00:20:37;;;;;;;35.10;31.50;;;1.80;99.90;;;;;;5045836;28;20045;-71
2024/01/07 00:23:03;;;;;;;31.05;27.65;;;1.80;99.90;;;;;;5045757;28;20037;-71
2024/01/07 00:25:28;;;;;;;30.63;26.50;;;1.80;99.90;;;;;;5043813;28;20328;-71
2024/01/07 00:27:55;;;;;;;30.70;27.17;;;1.80;99.90;;;;;;5044242;28;20017;-70
2024/01/07 00:30:21;;;;;;;37.30;27.85;;;1.80;99.90;;;;;;5027544;28;20318;-70
2024/01/07 00:32:47;;;;;;;32.70;28.10;;;1.80;99.90;;;;;;5027658;28;20021;-70
2024/01/07 00:35:14;;;;;;;29.95;25.33;;;1.80;99.90;;;;;;5023367;28;20080;-70
2024/01/07 00:37:39;;;;;;;26.80;24.02;;;2.20;99.90;;;;;;5007910;28;20032;-70
2024/01/07 00:40:06;;;;;;;32.13;26.17;;;1.80;99.90;;;;;;5024580;28;20042;-70
2024/01/07 00:42:32;;;;;;;39.78;29.80;;;1.80;99.90;;;;;;5024264;28;20219;-72
2024/01/07 00:44:58;;;;;;;29.25;26.13;;;1.80;99.90;;;;;;5021057;28;20025;-70
2024/01/07 00:47:23;;;;;;;31.55;26.63;;;1.80;99.90;;;;;;5027391;28;20230;-70
2024/01/07 00:49:50;;;;;;;37.53;27.63;;;1.80;99.90;;;;;;5011577;28;20143;-69
2024/01/07 00:52:15;;;;;;;38.55;30.98;;;1.80;99.90;;;;;;5027457;28;20025;-70
2024/01/07 00:54:42;;;;;;;36.63;28.38;;;1.80;99.90;;;;;;5009552;28;20025;-70
2024/01/07 00:57:11;;;;;;;34.67;28.65;;;1.80;99.90;;;;;;5045242;28;20040;-70
2024/01/07 00:59:37;;;;;;;30.85;26.42;;;1.80;99.90;;;;;;5026947;28;20065;-70
2024/01/07 01:02:03;;;;;;;32.47;27.95;;;1.80;99.90;;;;;;5011118;28;20299;-71
2024/01/07 01:04:30;;;;;;;34.65;28.02;;;1.90;99.90;;;;;;5025574;28;20005;-70
2024/01/07 01:06:55;;;;;;;29.08;26.00;;;1.90;99.90;;;;;;5027252;28;20303;-70
2024/01/07 01:09:21;;;;;;;29.90;26.02;;;1.90;99.90;;;;;;5011006;28;20036;-70
2024/01/07 01:11:49;;;;;;;32.17;26.90;;;1.90;99.90;;;;;;5010738;28;20029;-71
2024/01/07 01:14:15;;;;;;;32.08;26.52;;;1.90;99.90;;;;;;5043429;28;20036;-70
2024/01/07 01:16:41;;;;;;;29.30;25.63;;;1.90;99.90;;;;;;5044545;28;20022;-70
2024/01/07 01:19:08;;;;;;;36.25;27.27;;;2.20;99.90;;;;;;5043765;28;20025;-70
2024/01/07 01:21:35;;;;;;;37.25;28.77;;;2.10;99.90;;;;;;5044583;28;20045;-70
2024/01/07 01:24:01;;;;;;;32.88;29.38;;;1.80;99.90;;;;;;5033605;28;20033;-73
2024/01/07 01:26:26;;;;;;;33.40;29.05;;;1.90;99.90;;;;;;5031814;28;20037;-74
2024/01/07 01:28:52;;;;;;;30.17;24.73;;;1.90;99.90;;;;;;5026397;28;20298;-71
2024/01/07 01:31:18;;;;;;;28.58;25.55;;;1.80;99.90;;;;;;5041031;28;20021;-71
2024/01/07 01:33:46;;;;;;;45.80;31.92;;;1.80;99.90;;;;;;5037593;28;20350;-70
2024/01/07 01:36:11;;;;;;;36.17;30.08;;;1.80;99.90;;;;;;5041319;28;20014;-72
2024/01/07 01:38:37;;;;;;;29.63;26.10;;;1.80;99.90;;;;;;5040243;28;20041;-70
2024/01/07 01:41:03;;;;;;;33.72;25.40;;;1.80;99.90;;;;;;5038622;28;20040;-71
2024/01/07 01:43:29;;;;;;;36.65;27.65;;;1.80;99.90;;;;;;5040672;28;20287;-71
2024/01/07 01:45:56;;;;;;;29.23;23.75;;;1.80;99.90;;;;;;5025485;28;20014;-70
2024/01/07 01:48:27;;;;;;;30.75;27.42;;;1.80;99.90;;;;;;5040765;28;20033;-72
2024/01/07 01:50:57;;;;;;;30.15;26.92;;;1.90;99.90;;;;;;5009211;28;20026;-70
2024/01/07 01:53:26;;;;;;;31.42;24.98;;;1.80;99.90;;;;;;5039545;28;20025;-71
2024/01/07 01:55:52;;;;;;;31.73;27.13;;;1.90;99.90;;;;;;5008323;28;20030;-70
2024/01/07 01:58:20;;;;;;;34.20;26.88;;;1.90;99.90;;;;;;5036218;28;20018;-70
2024/01/07 02:00:46;;;;;;;27.58;23.52;;;1.90;99.90;;;;;;5006393;28;20100;-71
2024/01/07 02:03:12;;;;;;;31.13;25.42;;;1.90;99.90;;;;;;4989588;28;20025;-71
2024/01/07 02:05:38;;;;;;;28.92;24.90;;;1.90;99.90;;;;;;5043689;28;20044;-72
2024/01/07 02:08:04;;;;;;;31.17;25.42;;;1.90;99.90;;;;;;5025866;28;20211;-71
2024/01/07 02:10:34;;;;;;;29.40;23.83;;;1.90;99.90;;;;;;5042306;28;20017;-70
2024/01/07 02:13:00;;;;;;;30.98;24.80;;;1.90;99.90;;;;;;5009690;28;20032;-72
2024/01/07 02:15:26;;;;;;;30.77;26.15;;;1.90;99.90;;;;;;4989823;28;20052;-70
2024/01/07 02:17:52;;;;;;;26.92;24.20;;;1.90;99.90;;;;;;5005979;28;20239;-70
2024/01/07 02:20:18;;;;;;;27.35;24.42;;;1.90;99.90;;;;;;5022515;28;20057;-71
2024/01/07 02:22:44;;;;;;;29.10;22.80;;;1.90;99.90;;;;;;5025302;28;20037;-71
2024/01/07 02:25:09;;;;;;;29.48;21.75;;;1.90;99.90;;;;;;5023988;28;20046;-70
2024/01/07 02:27:35;;;;;;;37.00;22.70;;;1.80;99.90;;;;;;5025398;28;20380;-71
2024/01/07 02:30:01;;;;;;;27.38;22.02;;;1.80;99.90;;;;;;5043351;28;20202;-70
2024/01/07 02:32:28;;;;;;;32.50;27.67;;;1.80;99.90;;;;;;5009195;28;20029;-72
2024/01/07 02:34:54;;;;;;;31.33;23.42;;;1.80;99.90;;;;;;5041806;28;20557;-71
2024/01/07 02:37:20;;;;;;;29.02;25.92;;;1.80;99.90;;;;;;5043247;28;20042;-73
2024/01/07 02:39:46;;;;;;;27.02;24.08;;;2.10;99.90;;;;;;5042768;28;20218;-73
2024/01/07 02:42:11;;;;;;;27.15;22.95;;;2.40;99.90;;;;;;5041765;28;20198;-71
2024/01/07 02:44:37;;;;;;;29.80;26.23;;;1.80;99.90;;;;;;5040468;28;20034;-72
2024/01/07 02:47:03;;;;;;;33.95;24.67;;;1.80;99.90;;;;;;4992670;28;20032;-72
2024/01/07 02:49:29;;;;;;;26.55;22.85;;;1.80;99.90;;;;;;5007733;28;20214;-72
2024/01/07 02:51:55;;;;;;;29.33;21.95;;;1.80;99.90;;;;;;5025069;28;20097;-72
2024/01/07 02:54:21;;;;;;;30.13;24.55;;;1.80;99.90;;;;;;5023607;28;20034;-71
2024/01/07 02:56:46;;;;;;;25.45;21.80;;;1.80;99.90;;;;;;5025262;28;20362;-72
2024/01/07 02:59:12;;;;;;;26.98;22.40;;;1.80;99.90;;;;;;5041697;28;20037;-71
2024/01/07 03:01:40;;;;;;;31.13;23.98;;;1.70;99.90;;;;;;5042320;28;20285;-69
2024/01/07 03:04:08;;;;;;;30.10;23.33;;;1.80;99.90;;;;;;5028257;28;20059;-70
2024/01/07 03:06:34;;;;;;;33.92;24.73;;;1.80;99.90;;;;;;5023901;28;20017;-73
2024/01/07 03:09:00;;;;;;;28.77;24.83;;;1.80;99.90;;;;;;5022918;28;20341;-69
2024/01/07 03:11:26;;;;;;;28.20;25.15;;;1.80;99.90;;;;;;5021477;28;20026;-72
2024/01/07 03:13:52;;;;;;;28.33;25.25;;;1.70;99.90;;;;;;4994802;28;20307;-72
2024/01/07 03:16:25;;;;;;;33.80;24.48;;;1.70;99.90;;;;;;5024994;28;20025;-72
2024/01/07 03:18:52;;;;;;;28.38;22.83;;;1.80;99.90;;;;;;5042555;28;20026;-71
2024/01/07 03:21:22;;;;;;;34.63;24.23;;;1.80;99.90;;;;;;5025160;28;20072;-71
2024/01/07 03:23:49;;;;;;;25.63;22.85;;;1.80;99.90;;;;;;5006793;28;20037;-71
2024/01/07 03:26:16;;;;;;;38.80;29.30;;;1.70;99.90;;;;;;5024996;28;20045;-71
2024/01/07 03:28:42;;;;;;;35.67;28.20;;;1.80;99.90;;;;;;5008665;28;20021;-70
2024/01/07 03:31:10;;;;;;;44.00;29.02;;;1.70;99.90;;;;;;5042094;28;20345;-70
2024/01/07 03:33:40;;;;;;;37.03;31.20;;;2.50;99.90;;;;;;5041071;28;20022;-72
2024/01/07 03:36:13;;;;;;;41.15;33.53;;;1.70;99.90;;;;;;5024921;28;20084;-71
2024/01/07 03:38:40;;;;;;;38.30;29.80;;;1.70;99.90;;;;;;5024721;28;20033;-72
2024/01/07 03:41:06;;;;;;;46.90;29.52;;;1.70;99.90;;;;;;5024805;28;20088;-71
2024/01/07 03:43:32;;;;;;;49.30;33.15;;;1.70;99.90;;;;;;5041114;28;20025;-70
2024/01/07 03:45:59;;;;;;;44.75;31.65;;;1.70;99.90;;;;;;5024660;28;20033;-71
2024/01/07 03:48:25;;;;;;;55.00;36.28;;;1.70;99.90;;;;;;5042112;28;20029;-73
2024/01/07 03:50:51;;;;;;;48.15;34.55;;;2.30;99.90;;;;;;5042118;28;20025;-72
2024/01/07 03:53:17;;;;;;;40.22;29.65;;;1.70;99.90;;;;;;5039255;28;20027;-71
2024/01/07 03:55:43;;;;;;;39.35;30.45;;;1.60;99.90;;;;;;5024397;28;20045;-71
2024/01/07 03:58:09;;;;;;;38.08;31.38;;;1.60;99.90;;;;;;5024766;28;20104;-71
2024/01/07 04:00:36;;;;;;;44.45;34.08;;;1.60;99.90;;;;;;5043835;28;20044;-71
2024/01/07 04:03:02;;;;;;;47.70;32.75;;;1.60;99.90;;;;;;5044643;28;20044;-72
2024/01/07 04:05:29;;;;;;;42.70;32.08;;;1.60;99.90;;;;;;5043219;28;20018;-71
2024/01/07 04:07:55;;;;;;;42.58;31.60;;;1.60;99.90;;;;;;5027978;28;20092;-72
2024/01/07 04:10:20;;;;;;;35.72;30.50;;;1.60;99.90;;;;;;5011791;28;20022;-71
2024/01/07 04:12:46;;;;;;;36.50;32.70;;;1.60;99.90;;;;;;5027987;28;20219;-71
2024/01/07 04:15:12;;;;;;;37.47;29.65;;;1.60;99.90;;;;;;5015370;28;20026;-71
2024/01/07 04:17:38;;;;;;;39.78;32.53;;;1.60;99.90;;;;;;5045405;28;20045;-71
2024/01/07 04:20:05;;;;;;;41.72;33.25;;;1.60;99.90;;;;;;5045356;28;20076;-71
2024/01/07 04:22:32;;;;;;;41.78;31.85;;;1.60;99.90;;;;;;5023698;28;20041;-71
2024/01/07 04:24:57;;;;;;;42.63;30.38;;;1.60;99.90;;;;;;5042748;28;20025;-71
2024/01/07 04:27:24;;;;;;;35.15;29.40;;;1.90;99.90;;;;;;5044317;28;20022;-71
2024/01/07 04:29:50;;;;;;;43.83;28.48;;;1.60;99.90;;;;;;5027888;28;20218;-71
2024/01/07 04:32:16;;;;;;;31.75;27.67;;;1.60;99.90;;;;;;5044911;28;20194;-71
2024/01/07 04:34:43;;;;;;;39.40;27.45;;;1.60;99.90;;;;;;5009749;28;20017;-72
2024/01/07 04:37:09;;;;;;;37.88;29.83;;;2.70;99.90;;;;;;5045089;28;20025;-71
2024/01/07 04:39:35;;;;;;;31.67;24.33;;;1.60;99.90;;;;;;5027703;28;20207;-71
2024/01/07 04:42:00;;;;;;;27.00;21.88;;;1.60;99.90;;;;;;5027431;28;20044;-71
2024/01/07 04:44:26;;;;;;;30.35;22.45;;;1.70;99.90;;;;;;5010062;28;20294;-71
2024/01/07 04:46:52;;;;;;;30.83;24.02;;;1.60;99.90;;;;;;5044974;28;20027;-71
2024/01/07 04:49:18;;;;;;;25.02;21.08;;;;;;;;;;5044083;28;20223;-71
2024/01/07 04:51:44;;;;;;;24.55;19.95;;;1.60;99.90;;;;;;5027186;28;20041;-70
2024/01/07 04:54:09;;;;;;;24.45;21.02;;;1.60;99.90;;;;;;5043634;28;20047;-71
2024/01/07 04:56:35;;;;;;;26.67;22.45;;;1.60;99.90;;;;;;5044645;28;20116;-71
2024/01/07 04:59:01;;;;;;;25.92;21.95;;;1.60;99.90;;;;;;5044808;28;20030;-71
2024/01/07 05:01:27;;;;;;;26.52;20.55;;;1.50;99.90;;;;;;5026907;28;20092;-71
2024/01/07 05:03:53;;;;;;;29.88;22.17;;;1.50;99.90;;;;;;5009203;28;20021;-71
2024/01/07 05:06:19;;;;;;;25.73;22.55;;;1.50;99.90;;;;;;5035829;28;20049;-72
2024/01/07 05:08:45;;;;;;;28.85;22.80;;;1.50;99.90;;;;;;5023784;28;20037;-71
2024/01/07 05:11:11;;;;;;;29.10;23.88;;;1.50;99.90;;;;;;5007025;28;20030;-72
2024/01/07 05:13:37;;;;;;;29.92;21.38;;;1.50;99.90;;;;;;5026956;28;20040;-71
2024/01/07 05:16:03;;;;;;;26.38;23.48;;;2.20;99.90;;;;;;5026494;28;20017;-71
2024/01/07 05:18:29;;;;;;;27.85;21.45;;;1.50;99.90;;;;;;5044005;28;20156;-72
2024/01/07 05:20:55;;;;;;;27.40;24.55;;;1.40;99.90;;;;;;5042763;28;20286;-72
2024/01/07 05:23:21;;;;;;;26.77;22.45;;;1.40;99.90;;;;;;5041999;28;20032;-71
2024/01/07 05:25:47;;;;;;;22.05;18.80;;;1.50;99.90;;;;;;5043766;28;20329;-71
2024/01/07 05:28:13;;;;;;;25.83;21.88;;;1.40;99.90;;;;;;5044375;28;20033;-71
2024/01/07 05:30:40;;;;;;;28.50;20.52;;;1.40;99.90;;;;;;5026552;28;20341;-71
2024/01/07 05:33:05;;;;;;;25.20;20.88;;;1.40;99.90;;;;;;5044096;28;20029;-72
2024/01/07 05:35:31;;;;;;;27.80;22.13;;;1.40;99.90;;;;;;5041939;28;20026;-72
2024/01/07 05:37:58;;;;;;;23.73;21.48;;;1.40;99.90;;;;;;5044231;28;20033;-71
2024/01/07 05:40:24;;;;;;;26.17;20.67;;;1.40;99.90;;;;;;5026209;28;20050;-71
2024/01/07 05:42:49;;;;;;;24.55;21.50;;;1.40;99.90;;;;;;5043547;28;20032;-71
2024/01/07 05:45:16;;;;;;;25.35;19.88;;;1.60;99.90;;;;;;5024252;28;20030;-71
2024/01/07 05:47:41;;;;;;;27.10;21.75;;;1.40;99.90;;;;;;5022860;28;20121;-72
2024/01/07 05:50:08;;;;;;;27.55;19.25;;;1.40;99.90;;;;;;5023151;28;20109;-71
2024/01/07 05:52:34;;;;;;;24.15;21.83;;;1.40;99.90;;;;;;5024512;28;20029;-71
2024/01/07 05:55:00;;;;;;;23.02;20.58;;;1.40;99.90;;;;;;5020650;28;20045;-72
2024/01/07 05:57:26;;;;;;;27.48;24.52;;;1.40;99.90;;;;;;5043601;28;20036;-71
2024/01/07 05:59:52;;;;;;;20.58;18.63;;;1.60;99.90;;;;;;5042533;28;20041;-72
2024/01/07 06:02:18;;;;;;;30.67;20.80;;;1.40;99.90;;;;;;5026363;28;20034;-71
2024/01/07 06:04:44;;;;;;;19.80;17.60;;;1.30;99.90;;;;;;5041961;28;20021;-72
2024/01/07 06:07:10;;;;;;;19.70;17.73;;;1.70;99.90;;;;;;5043630;28;20341;-71
2024/01/07 06:09:35;;;;;;;20.30;18.35;;;1.30;99.90;;;;;;5043511;28;20097;-72
2024/01/07 06:12:02;;;;;;;21.13;18.27;;;1.90;99.90;;;;;;5042339;28;20026;-71
2024/01/07 06:14:28;;;;;;;21.48;19.58;;;2.00;99.90;;;;;;5024321;28;20075;-71
2024/01/07 06:16:53;;;;;;;19.92;17.52;;;1.30;99.90;;;;;;5009262;28;20021;-71
2024/01/07 06:19:20;;;;;;;18.58;16.15;;;1.30;99.90;;;;;;5025385;28;20035;-72
2024/01/07 06:21:46;;;;;;;22.80;18.50;;;1.30;99.90;;;;;;5025271;28;20044;-72
2024/01/07 06:24:12;;;;;;;21.00;17.92;;;1.30;99.90;;;;;;5035528;28;20211;-72
2024/01/07 06:26:37;;;;;;;18.42;16.52;;;1.30;99.90;;;;;;5041551;28;20056;-71
2024/01/07 06:29:03;;;;;;;22.23;19.85;;;1.70;99.90;;;;;;5008954;28;20018;-72
2024/01/07 06:31:29;;;;;;;18.60;16.45;;;1.30;99.90;;;;;;5009142;28;20033;-72
2024/01/07 06:33:58;;;;;;;20.13;18.20;;;1.20;99.90;;;;;;5024271;28;20078;-72
2024/01/07 06:36:27;;;;;;;21.38;18.10;;;1.20;99.90;;;;;;5025268;28;20318;-73
2024/01/07 06:38:53;;;;;;;21.42;19.25;;;1.30;99.90;;;;;;5025362;28;20259;-75
2024/01/07 06:41:19;;;;;;;18.95;17.20;;;1.20;99.90;;;;;;5022324;28;20045;-73
2024/01/07 06:43:44;;;;;;;18.52;16.52;;;2.00;99.90;;;;;;5036335;28;20319;-73
2024/01/07 06:46:10;;;;;;;18.60;16.80;;;1.10;99.90;;;;;;5020324;28;20030;-76
2024/01/07 06:48:36;;;;;;;18.48;16.63;;;1.20;99.90;;;;;;5023361;28;20045;-75
2024/01/07 06:51:02;;;;;;;18.45;16.55;;;1.20;99.90;;;;;;5040075;28;20056;-75
2024/01/07 06:53:28;;;;;;;18.92;17.08;;;1.20;99.90;;;;;;5006649;28;20036;-74
2024/01/07 06:55:54;;;;;;;16.98;15.32;;;1.20;99.90;;;;;;5024867;28;20021;-76
2024/01/07 06:58:20;;;;;;;19.23;17.38;;;1.20;99.90;;;;;;5042087;28;20044;-75
2024/01/07 07:00:46;;;;;;;18.02;14.70;;;1.20;99.90;;;;;;5042518;28;20087;-75
2024/01/07 07:03:11;;;;;;;20.48;16.42;;;1.60;99.90;;;;;;5039986;28;20097;-75
2024/01/07 07:05:38;;;;;;;18.83;17.02;;;1.10;99.90;;;;;;5032708;28;20331;-76
2024/01/07 07:08:04;;;;;;;19.73;17.77;;;1.10;99.90;;;;;;5033313;28;20311;-75
2024/01/07 07:10:31;;;;;;;17.10;15.50;;;1.10;99.90;;;;;;5040801;28;20025;-72
2024/01/07 07:12:57;;;;;;;17.77;16.10;;;1.10;99.90;;;;;;5024527;28;20087;-74
2024/01/07 07:15:26;;;;;;;20.35;16.45;;;1.10;99.90;;;;;;5040345;28;20034;-74
2024/01/07 07:17:52;;;;;;;19.00;17.17;;;1.30;99.90;;;;;;5029022;28;20033;-74
2024/01/07 07:20:18;;;;;;;18.33;15.38;;;1.10;99.90;;;;;;5007538;28;20444;-73
2024/01/07 07:22:44;;;;;;;17.35;15.77;;;1.10;99.90;;;;;;5041032;28;20021;-73
2024/01/07 07:25:09;;;;;;;16.52;14.93;;;1.10;99.90;;;;;;5006386;28;20085;-75
2024/01/07 07:27:35;;;;;;;19.45;17.70;;;1.10;99.90;;;;;;5042545;28;20025;-73
2024/01/07 07:30:01;;;;;;;20.10;18.02;;;1.20;99.90;;;;;;5007502;28;20021;-73
2024/01/07 07:32:27;;;;;;;18.40;16.63;;;1.10;99.90;;;;;;5020792;28;20068;-72
2024/01/07 07:34:52;;;;;;;20.08;17.95;;;1.10;99.90;;;;;;5034418;28;20258;-72
2024/01/07 07:37:18;;;;;;;19.55;15.65;;;1.10;99.90;;;;;;5006082;28;20030;-72
2024/01/07 07:39:44;;;;;;;18.15;16.42;;;1.10;99.90;;;;;;5024056;28;20037;-73
2024/01/07 07:42:10;;;;;;;18.35;16.27;;;1.10;99.90;;;;;;5045920;28;20063;-71
2024/01/07 07:44:39;;;;;;;17.65;16.13;;;1.10;99.90;;;;;;5024792;28;20068;-72
2024/01/07 07:47:05;;;;;;;17.85;16.25;;;1.10;99.90;;;;;;5045467;28;20037;-72
2024/01/07 07:49:31;;;;;;;20.48;18.45;;;;;;;;;;5044120;28;20060;-71
2024/01/07 07:51:57;;;;;;;22.40;17.05;;;1.00;99.90;;;;;;5027742;28;20032;-71
2024/01/07 07:54:23;;;;;;;21.40;16.30;;;1.00;99.90;;;;;;5044729;28;20049;-71
2024/01/07 07:56:49;;;;;;;22.40;20.10;;;1.00;99.90;;;;;;5045541;28;20021;-71
2024/01/07 07:59:15;;;;;;;18.98;17.02;;;1.00;99.90;;;;;;5045187;28;20094;-72
2024/01/07 08:01:40;;;;;;;23.60;18.80;;;1.20;99.90;;;;;;5027188;28;20056;-72
2024/01/07 08:04:07;;;;;;;18.95;17.25;;;1.00;99.90;;;;;;5007415;28;20361;-72
2024/01/07 08:06:33;;;;;;;18.30;16.63;;;1.00;99.90;;;;;;5036765;28;20017;-72
2024/01/07 08:08:59;;;;;;;20.42;18.33;;;1.00;99.90;;;;;;5044237;28;20030;-71
2024/01/07 08:11:25;;;;;;;21.60;16.90;;;1.00;99.90;;;;;;5040493;28;20025;-71
2024/01/07 08:13:50;;;;;;;21.33;19.17;;;1.00;99.90;;;;;;5010156;28;20022;-72
2024/01/07 08:16:16;;;;;;;22.75;18.13;;;0.90;99.90;;;;;;5022436;28;20365;-72
2024/01/07 08:18:42;;;;;;;19.45;17.13;;;1.00;99.90;;;;;;5036924;28;20235;-72
2024/01/07 08:21:09;;;;;;;21.42;19.13;;;1.00;99.90;;;;;;5033995;28;20041;-71
2024/01/07 08:23:35;;;;;;;21.58;19.45;;;0.90;99.90;;;;;;5022570;28;20057;-72
2024/01/07 08:26:02;;;;;;;17.77;15.98;;;1.00;99.90;;;;;;5012152;28;20040;-71
2024/01/07 08:28:27;;;;;;;22.80;20.40;;;1.00;99.90;;;;;;5033999;28;20022;-70
2024/01/07 08:30:53;;;;;;;21.05;18.50;;;1.00;99.90;;;;;;5025594;28;20021;-74
2024/01/07 08:33:19;;;;;;;22.15;19.75;;;1.10;99.90;;;;;;5038192;28;20084;-71
2024/01/07 08:35:45;;;;;;;26.05;21.83;;;0.90;99.90;;;;;;5041341;28;20092;-72
2024/01/07 08:38:11;;;;;;;23.33;21.08;;;1.00;99.90;;;;;;5044611;28;20318;-72
2024/01/07 08:40:39;;;;;;;24.77;19.65;;;0.90;99.90;;;;;;5034226;28;20042;-72
2024/01/07 08:43:05;;;;;;;26.00;19.48;;;0.90;99.90;;;;;;5023269;28;20028;-72
2024/01/07 08:45:30;;;;;;;25.27;18.38;;;0.90;99.90;;;;;;5039653;28;20041;-71
2024/01/07 08:47:56;;;;;;;24.80;20.02;;;0.90;99.90;;;;;;5042822;28;20036;-71
2024/01/07 08:50:22;;;;;;;26.27;21.38;;;0.90;99.90;;;;;;5035061;28;20028;-71
2024/01/07 08:52:48;;;;;;;25.35;22.83;;;0.90;99.90;;;;;;5023436;28;20033;-71
2024/01/07 08:55:14;;;;;;;28.05;24.83;;;0.90;99.90;;;;;;5032478;28;20033;-71
2024/01/07 08:57:39;;;;;;;29.05;21.67;;;2.40;99.90;;;;;;5014711;28;20018;-70
2024/01/07 09:00:07;;;;;;;24.38;21.88;;;0.80;99.90;;;;;;5009335;28;20033;-71
2024/01/07 09:02:33;;;;;;;28.48;21.05;;;0.90;99.90;;;;;;5039258;28;20030;-74
2024/01/07 09:05:00;;;;;;;24.80;22.42;;;0.90;99.90;;;;;;5021275;28;20034;-72
2024/01/07 09:07:25;;;;;;;22.83;17.48;;;0.90;99.90;;;;;;5037926;28;20022;-72
2024/01/07 09:09:51;;;;;;;23.02;20.58;;;1.60;99.90;;;;;;5041759;28;20048;-72
2024/01/07 09:12:17;;;;;;;24.08;21.77;;;0.90;99.90;;;;;;5041745;28;20080;-72
2024/01/07 09:14:43;;;;;;;22.70;20.10;;;0.90;99.90;;;;;;5040450;28;20055;-70
2024/01/07 09:17:09;;;;;;;27.92;24.00;;;0.90;99.90;;;;;;5040896;28;20033;-70
2024/01/07 09:19:34;;;;;;;24.25;19.65;;;1.50;99.90;;;;;;5024240;28;20014;-73
2024/01/07 09:22:00;;;;;;;24.08;21.25;;;0.90;99.90;;;;;;5005976;28;20018;-72
2024/01/07 09:24:26;;;;;;;23.52;21.33;;;1.00;99.90;;;;;;5040017;28;20303;-80
2024/01/07 09:26:52;;;;;;;24.13;21.65;;;1.00;99.90;;;;;;5037616;28;20311;-73
2024/01/07 09:29:18;;;;;;;23.85;20.95;;;1.00;99.90;;;;;;5041742;28;20029;-74
2024/01/07 09:31:44;;;;;;;23.25;18.70;;;1.00;99.90;;;;;;5014194;28;20037;-72
2024/01/07 09:34:09;;;;;;;25.67;22.23;;;1.00;99.90;;;;;;5041741;28;20029;-76
2024/01/07 09:36:36;;;;;;;21.50;19.27;;;1.00;99.90;;;;;;5009218;28;20022;-72
2024/01/07 09:39:04;;;;;;;22.15;19.88;;;1.00;99.90;;;;;;5040883;28;20028;-72
2024/01/07 09:41:30;;;;;;;23.27;18.52;;;1.00;99.90;;;;;;5037611;28;20087;-72
2024/01/07 09:43:58;;;;;;;21.40;19.40;;;1.00;99.90;;;;;;5037932;28;20020;-72
2024/01/07 09:46:28;;;;;;;25.88;22.58;;;1.60;99.90;;;;;;5039928;28;20022;-74
2024/01/07 09:48:54;;;;;;;32.03;25.08;;;1.00;99.90;;;;;;5021356;28;20025;-73
2024/01/07 09:51:23;;;;;;;27.40;22.35;;;1.00;99.90;;;;;;5007375;28;20026;-73
2024/01/07 09:53:56;;;;;;;25.50;20.93;;;1.00;99.90;;;;;;5038322;28;20021;-73
2024/01/07 09:56:29;;;;;;;23.10;20.08;;;1.00;99.90;;;;;;5035004;28;20282;-73
2024/01/07 09:58:55;;;;;;;18.73;16.73;;;1.00;99.90;;;;;;5040607;28;20088;-73
2024/01/07 10:01:21;;;;;;;22.08;17.83;;;1.00;99.90;;;;;;5038137;28;20040;-73
2024/01/07 10:03:47;;;;;;;21.13;19.02;;;2.00;99.90;;;;;;5039849;28;20044;-73
2024/01/07 10:06:13;;;;;;;20.95;18.38;;;0.90;99.90;;;;;;5038161;28;20096;-75
2024/01/07 10:08:39;;;;;;;18.52;16.67;;;1.20;99.90;;;;;;5022168;28;20238;-73
2024/01/07 10:11:05;;;;;;;25.67;17.67;;;0.90;99.90;;;;;;5036542;28;20033;-75
2024/01/07 10:13:32;;;;;;;19.95;17.92;;;0.90;99.90;;;;;;5037804;28;20092;-72
2024/01/07 10:15:58;;;;;;;21.38;16.05;;;1.40;99.90;;;;;;5019451;28;20057;-73
2024/01/07 10:18:25;;;;;;;20.40;18.33;;;0.90;99.90;;;;;;5039642;28;20321;-74
2024/01/07 10:20:51;;;;;;;17.85;16.15;;;0.90;99.90;;;;;;5039576;28;20113;-74
2024/01/07 10:23:20;;;;;;;20.70;18.83;;;1.20;99.90;;;;;;5023676;28;20044;-73
2024/01/07 10:25:50;;;;;;;23.25;18.88;;;1.80;99.90;;;;;;5019666;28;20269;-72
2024/01/07 10:28:16;;;;;;;21.75;19.73;;;0.90;99.90;;;;;;5039083;28;20313;-73
2024/01/07 10:30:50;;;;;;;17.83;16.05;;;0.90;99.90;;;;;;5020587;28;20026;-73
2024/01/07 10:33:19;;;;;;;17.88;16.08;;;1.10;99.90;;;;;;5022866;28;20218;-73
2024/01/07 10:35:53;;;;;;;18.33;15.07;;;0.90;99.90;;;;;;5036490;28;20370;-75
2024/01/07 10:38:20;;;;;;;15.35;13.98;;;1.00;99.90;;;;;;5040624;28;20312;-73
2024/01/07 10:40:47;;;;;;;17.05;15.43;;;0.90;99.90;;;;;;5004512;28;20041;-74
2024/01/07 10:43:16;;;;;;;23.70;19.67;;;1.10;99.90;;;;;;5016077;28;20439;-72
2024/01/07 10:45:48;;;;;;;17.58;15.98;;;0.90;99.90;;;;;;5003840;28;20314;-75
2024/01/07 10:48:19;;;;;;;20.02;17.00;;;0.90;99.90;;;;;;5040522;28;20087;-73
2024/01/07 10:50:50;;;;;;;21.00;16.60;;;0.90;99.90;;;;;;5041664;28;20100;-74
2024/01/07 10:53:20;;;;;;;21.08;15.45;;;0.80;99.90;;;;;;5041528;28;20033;-77
2024/01/07 10:56:03;;;;;;;17.13;15.55;;;0.90;99.90;;;;;;5023309;28;20033;-76
2024/01/07 10:58:32;;;;;;;16.60;15.07;;;0.90;99.90;;;;;;5041083;28;20246;-75
2024/01/07 11:01:02;;;;;;;17.02;14.70;;;1.00;99.90;;;;;;5040683;28;20040;-75
2024/01/07 11:03:28;;;;;;;;;;;2.10;99.90;;;;;;5024153;28;20028;-76
2024/01/07 11:05:59;;;;;;;14.90;13.50;;;1.00;99.90;;;;;;5022321;28;19991;-75
2024/01/07 11:08:28;;;;;;;16.35;14.07;;;1.30;99.90;;;;;;5004537;28;20018;-76
2024/01/07 11:11:03;;;;;;;15.75;14.18;;;1.00;99.90;;;;;;4987857;28;20018;-77
2024/01/07 11:13:38;;;;;;;21.02;18.13;;;1.00;99.90;;;;;;5040149;28;20032;-75
2024/01/07 11:16:05;;;;;;;17.00;15.20;;;0.90;99.90;;;;;;5039338;28;20026;-76
2024/01/07 11:18:33;;;;;;;14.07;12.93;;;0.90;99.90;;;;;;5027694;28;20037;-75
2024/01/07 11:21:01;;;;;;;15.07;13.50;;;1.00;99.90;;;;;;5034754;28;20326;-72
2024/01/07 11:23:37;;;;;;;12.90;11.68;;;1.00;99.90;;;;;;5020618;28;20094;-80
2024/01/07 11:26:04;;;;;;;12.98;11.93;;;1.20;99.90;;;;;;5022735;28;20021;-74
2024/01/07 11:28:51;;;;;;;13.40;12.07;;;0.90;99.90;;;;;;5042763;28;20033;-77
2024/01/07 11:31:19;;;;;;;13.35;11.50;;;0.90;99.90;;;;;;5038170;28;20017;-72
2024/01/07 11:33:47;;;;;;;15.60;14.20;;;1.10;99.90;;;;;;5038092;28;20014;-73
2024/01/07 11:36:17;;;;;;;12.27;11.18;;;1.00;99.90;;;;;;5020175;28;20024;-73
2024/01/07 11:38:53;;;;;;;13.88;12.43;;;1.00;99.90;;;;;;5023430;28;20025;-73
2024/01/07 11:41:20;;;;;;;12.75;10.82;;;1.30;99.90;;;;;;5023126;28;20072;-74
2024/01/07 11:44:00;;;;;;;13.15;11.98;;;1.50;99.90;;;;;;5020863;28;20018;-73
2024/01/07 11:46:32;;;;;;;13.27;11.98;;;1.00;99.90;;;;;;5033936;28;20029;-74
2024/01/07 11:48:59;;;;;;;13.98;12.73;;;1.10;99.90;;;;;;5039408;28;20049;-73
2024/01/07 11:51:26;;;;;;;12.93;11.68;;;1.10;99.90;;;;;;5023050;28;20014;-73
2024/01/07 11:53:52;;;;;;;14.82;13.38;;;1.20;99.90;;;;;;5037974;28;20088;-73
2024/01/07 11:56:19;;;;;;;13.15;12.02;;;1.00;99.90;;;;;;5039920;28;20029;-73
2024/01/07 11:58:44;;;;;;;11.43;10.32;;;1.30;99.90;;;;;;5023475;28;20024;-73
2024/01/07 12:01:10;;;;;;;12.57;11.45;;;1.40;99.90;;;;;;5022602;28;20226;-72
2024/01/07 12:03:36;;;;;;;12.00;11.00;;;1.60;99.90;;;;;;5039388;28;20025;-72
2024/01/07 12:06:03;;;;;;;14.60;10.88;;;1.40;99.90;;;;;;5038456;28;20038;-72
2024/01/07 12:08:30;;;;;;;11.60;10.60;;;1.40;99.90;;;;;;5020945;28;20092;-73
2024/01/07 12:10:56;;;;;;;11.18;10.18;;;1.30;99.90;;;;;;5021410;28;20079;-74
2024/01/07 12:13:23;;;;;;;9.60;8.75;;;1.20;99.90;;;;;;5020961;28;20022;-72
2024/01/07 12:15:48;;;;;;;9.32;8.55;;;1.30;99.90;;;;;;5021339;28;20230;-72
2024/01/07 12:18:14;;;;;;;9.02;8.20;;;1.10;99.90;;;;;;5016646;28;20631;-77
2024/01/07 12:20:40;;;;;;;10.77;9.88;;;1.10;99.90;;;;;;5005791;28;20415;-71
2024/01/07 12:23:10;;;;;;;10.75;9.88;;;1.00;99.90;;;;;;5020003;28;20022;-72
2024/01/07 12:25:36;;;;;;;13.52;12.15;;;1.00;99.90;;;;;;5022695;28;20029;-71
2024/01/07 12:28:06;;;;;;;12.35;11.10;;;1.00;99.90;;;;;;5030818;28;20093;-71
2024/01/07 12:30:32;;;;;;;13.45;9.60;;;1.00;99.90;;;;;;5014066;28;20017;-71
2024/01/07 12:32:58;;;;;;;13.45;11.13;;;0.90;99.90;;;;;;5012529;28;20075;-71
2024/01/07 12:35:29;;;;;;;16.25;11.90;;;0.90;99.90;;;;;;5020000;28;20306;-72